createdAt,value
2022-07-27T00:00:23.912Z,78.40
2022-07-27T00:01:27.279Z,78.40
2022-07-27T00:02:29.725Z,78.40
2022-07-27T00:03:34.508Z,78.40
2022-07-27T00:04:40.921Z,78.50
2022-07-27T00:05:45.734Z,78.50
2022-07-27T00:06:49.539Z,78.50
2022-07-27T00:07:52.183Z,78.50
2022-07-27T00:08:55.536Z,78.50
2022-07-27T00:09:57.817Z,78.60
2022-07-27T00:11:01.095Z,78.50
2022-07-27T00:12:07.364Z,78.60
2022-07-27T00:13:09.759Z,78.70
2022-07-27T00:14:13.154Z,78.60
2022-07-27T00:15:15.470Z,78.70
2022-07-27T00:16:18.858Z,78.70
2022-07-27T00:17:23.941Z,78.70
2022-07-27T00:18:27.525Z,78.70
2022-07-27T00:19:31.369Z,78.70
2022-07-27T00:20:34.785Z,78.70
2022-07-27T00:21:37.644Z,78.80
2022-07-27T00:22:48.354Z,78.90
2022-07-27T00:23:51.952Z,78.90
2022-07-27T00:24:54.724Z,78.90
2022-07-27T00:25:58.854Z,78.90
2022-07-27T00:27:01.307Z,79.00
2022-07-27T00:28:05.578Z,79.00
2022-07-27T00:29:09.252Z,79.20
2022-07-27T00:30:13.343Z,79.20
2022-07-27T00:31:17.075Z,79.20
2022-07-27T00:32:19.447Z,79.30
2022-07-27T00:33:24.952Z,79.40
2022-07-27T00:34:27.467Z,79.40
2022-07-27T00:35:33.059Z,79.50
2022-07-27T00:36:36.657Z,79.60
2022-07-27T00:37:42.349Z,79.60
2022-07-27T00:38:44.746Z,79.60
2022-07-27T00:39:48.144Z,79.60
2022-07-27T00:40:54.052Z,79.60
2022-07-27T00:41:59.035Z,79.60
2022-07-27T00:43:02.308Z,79.70
2022-07-27T00:44:06.804Z,79.80
2022-07-27T00:45:11.453Z,79.80
2022-07-27T00:46:16.458Z,79.90
2022-07-27T00:47:19.988Z,80.00
2022-07-27T00:48:22.347Z,80.00
2022-07-27T00:49:28.478Z,80.10
2022-07-27T00:50:32.197Z,80.10
2022-07-27T00:51:35.688Z,80.20
2022-07-27T00:52:38.963Z,80.30
2022-07-27T00:53:42.545Z,80.40
2022-07-27T00:54:48.837Z,80.40
2022-07-27T00:55:52.253Z,80.40
2022-07-27T00:56:54.925Z,80.50
2022-07-27T00:57:59.655Z,80.50
2022-07-27T00:59:02.268Z,80.50
2022-07-27T01:00:07.842Z,80.50
2022-07-27T01:01:10.250Z,80.60
2022-07-27T01:02:17.267Z,80.60
2022-07-27T01:03:23.190Z,80.70
2022-07-27T01:04:33.199Z,80.70
2022-07-27T01:05:42.714Z,80.70
2022-07-27T01:06:49.626Z,80.80
2022-07-27T01:07:52.129Z,80.80
2022-07-27T01:09:13.923Z,80.80
2022-07-27T01:10:19.979Z,80.80
2022-07-27T01:11:22.326Z,80.90
2022-07-27T01:12:30.334Z,80.90
2022-07-27T01:13:32.805Z,80.90
2022-07-27T01:14:36.701Z,80.90
2022-07-27T01:15:40.235Z,80.90
2022-07-27T01:16:43.419Z,81.00
2022-07-27T01:17:48.966Z,81.00
2022-07-27T01:18:53.873Z,81.00
2022-07-27T01:19:58.006Z,81.00
2022-07-27T01:21:06.296Z,81.00
2022-07-27T01:22:13.488Z,81.00
2022-07-27T01:23:15.964Z,81.10
2022-07-27T01:24:19.224Z,81.10
2022-07-27T01:25:23.997Z,81.10
2022-07-27T01:26:27.680Z,81.20
2022-07-27T01:27:30.428Z,81.20
2022-07-27T01:28:33.841Z,81.30
2022-07-27T01:29:37.386Z,81.30
2022-07-27T01:30:40.645Z,81.30
2022-07-27T01:31:43.082Z,81.40
2022-07-27T01:32:46.439Z,81.40
2022-07-27T01:33:53.039Z,81.30
2022-07-27T01:34:55.396Z,81.40
2022-07-27T01:35:59.179Z,81.40
2022-07-27T01:37:01.999Z,81.50
2022-07-27T01:38:12.342Z,81.50
2022-07-27T01:39:19.077Z,81.40
2022-07-27T01:40:22.735Z,81.40
2022-07-27T01:41:25.050Z,81.40
2022-07-27T01:42:28.276Z,81.40
2022-07-27T01:43:30.580Z,81.40
2022-07-27T01:44:33.876Z,81.40
2022-07-27T01:45:36.418Z,81.40
2022-07-27T01:46:39.868Z,81.40
2022-07-27T01:47:43.200Z,81.40
2022-07-27T01:48:48.047Z,81.40
2022-07-27T01:49:53.008Z,81.40
2022-07-27T01:50:56.387Z,81.40
2022-07-27T01:51:59.812Z,81.40
2022-07-27T01:53:03.071Z,81.40
2022-07-27T01:54:09.168Z,81.40
2022-07-27T01:55:13.300Z,81.40
2022-07-27T01:56:16.428Z,81.30
2022-07-27T01:57:19.851Z,81.30
2022-07-27T01:58:24.344Z,81.30
2022-07-27T01:59:27.575Z,81.20
2022-07-27T02:00:30.862Z,81.20
2022-07-27T02:01:34.512Z,81.20
2022-07-27T02:02:37.105Z,81.30
2022-07-27T02:03:43.128Z,81.30
2022-07-27T02:04:45.591Z,81.30
2022-07-27T02:05:49.070Z,81.30
2022-07-27T02:06:51.548Z,81.30
2022-07-27T02:07:54.917Z,81.30
2022-07-27T02:08:59.624Z,81.30
2022-07-27T02:10:05.343Z,81.40
2022-07-27T02:11:26.560Z,81.40
2022-07-27T02:12:37.962Z,81.40
2022-07-27T02:13:44.729Z,81.40
2022-07-27T02:14:47.097Z,81.50
2022-07-27T02:15:50.543Z,81.50
2022-07-27T02:16:57.124Z,81.50
2022-07-27T02:18:00.360Z,81.60
2022-07-27T02:19:05.316Z,81.70
2022-07-27T02:20:12.969Z,81.70
2022-07-27T02:21:15.351Z,81.70
2022-07-27T02:22:19.075Z,81.70
2022-07-27T02:23:23.771Z,81.70
2022-07-27T02:24:27.016Z,81.70
2022-07-27T02:25:31.347Z,81.80
2022-07-27T02:26:36.677Z,81.80
2022-07-27T02:27:40.330Z,81.80
2022-07-27T02:28:43.676Z,81.90
2022-07-27T02:29:48.274Z,81.90
2022-07-27T02:30:51.587Z,81.90
2022-07-27T02:31:54.001Z,81.90
2022-07-27T02:32:57.445Z,81.90
2022-07-27T02:34:00.146Z,81.90
2022-07-27T02:35:18.384Z,81.90
2022-07-27T02:36:24.868Z,81.90
2022-07-27T02:37:27.323Z,81.90
2022-07-27T02:38:30.656Z,81.90
2022-07-27T02:39:32.914Z,81.90
2022-07-27T02:40:37.755Z,81.90
2022-07-27T02:41:40.088Z,82.00
2022-07-27T02:42:43.425Z,82.00
2022-07-27T02:43:45.817Z,82.00
2022-07-27T02:44:49.373Z,82.00
2022-07-27T02:45:52.258Z,82.00
2022-07-27T02:46:55.865Z,82.00
2022-07-27T02:47:59.092Z,82.10
2022-07-27T02:49:02.425Z,82.10
2022-07-27T02:50:07.771Z,82.20
2022-07-27T02:51:11.109Z,82.20
2022-07-27T02:52:13.446Z,82.20
2022-07-27T02:53:16.694Z,82.20
2022-07-27T02:54:22.019Z,82.20
2022-07-27T02:55:25.393Z,82.20
2022-07-27T02:56:29.143Z,82.20
2022-07-27T02:57:34.413Z,82.20
2022-07-27T02:58:38.493Z,82.20
2022-07-27T02:59:41.826Z,82.20
2022-07-27T03:00:44.297Z,82.20
2022-07-27T03:01:49.032Z,82.20
2022-07-27T03:02:51.905Z,82.20
2022-07-27T03:03:57.764Z,82.20
2022-07-27T03:05:00.044Z,82.20
2022-07-27T03:06:03.600Z,82.20
2022-07-27T03:07:06.760Z,82.20
2022-07-27T03:08:12.700Z,82.20
2022-07-27T03:09:15.382Z,82.20
2022-07-27T03:10:19.037Z,82.10
2022-07-27T03:11:23.408Z,82.10
2022-07-27T03:12:28.205Z,82.10
2022-07-27T03:13:32.124Z,82.10
2022-07-27T03:14:34.624Z,82.10
2022-07-27T03:15:37.921Z,82.10
2022-07-27T03:16:40.167Z,82.20
2022-07-27T03:17:43.646Z,82.20
2022-07-27T03:18:49.930Z,82.20
2022-07-27T03:19:53.244Z,82.30
2022-07-27T03:20:55.542Z,82.30
2022-07-27T03:21:59.169Z,82.30
2022-07-27T03:23:02.570Z,82.30
2022-07-27T03:24:05.796Z,82.30
2022-07-27T03:25:10.238Z,82.30
2022-07-27T03:26:12.481Z,82.30
2022-07-27T03:27:15.758Z,82.30
2022-07-27T03:28:19.634Z,82.30
2022-07-27T03:29:22.996Z,82.30
2022-07-27T03:30:25.212Z,82.30
2022-07-27T03:31:28.754Z,82.30
2022-07-27T03:32:31.324Z,82.30
2022-07-27T03:33:36.820Z,82.30
2022-07-27T03:34:39.124Z,82.30
2022-07-27T03:35:42.542Z,82.30
2022-07-27T03:36:46.454Z,82.30
2022-07-27T03:37:48.800Z,82.30
2022-07-27T03:38:52.549Z,82.30
2022-07-27T03:39:54.920Z,82.30
2022-07-27T03:40:58.197Z,82.40
2022-07-27T03:42:00.466Z,82.40
2022-07-27T03:43:03.725Z,82.50
2022-07-27T03:44:07.428Z,82.50
2022-07-27T03:45:11.846Z,82.50
2022-07-27T03:46:14.515Z,82.40
2022-07-27T03:47:17.850Z,82.50
2022-07-27T03:48:20.117Z,82.60
2022-07-27T03:49:23.599Z,82.60
2022-07-27T03:50:28.189Z,82.60
2022-07-27T03:51:31.625Z,82.70
2022-07-27T03:52:34.094Z,82.60
2022-07-27T03:53:37.556Z,82.60
2022-07-27T03:54:40.436Z,82.60
2022-07-27T03:55:46.769Z,82.60
2022-07-27T03:56:49.098Z,82.70
2022-07-27T03:57:52.534Z,82.70
2022-07-27T03:58:54.760Z,82.70
2022-07-27T03:59:59.448Z,82.70
2022-07-27T04:01:02.179Z,82.70
2022-07-27T04:02:05.948Z,82.60
2022-07-27T04:03:08.312Z,82.60
2022-07-27T04:04:14.018Z,82.60
2022-07-27T04:05:16.721Z,82.70
2022-07-27T04:06:22.007Z,82.70
2022-07-27T04:07:26.602Z,82.50
2022-07-27T04:08:30.116Z,82.60
2022-07-27T04:09:34.330Z,82.50
2022-07-27T04:10:36.671Z,82.40
2022-07-27T04:11:50.474Z,82.40
2022-07-27T04:12:53.775Z,82.50
2022-07-27T04:13:57.355Z,82.60
2022-07-27T04:15:01.026Z,82.60
2022-07-27T04:16:04.398Z,82.70
2022-07-27T04:17:07.402Z,82.70
2022-07-27T04:18:10.677Z,82.70
2022-07-27T04:19:13.678Z,82.80
2022-07-27T04:20:17.767Z,82.80
2022-07-27T04:21:20.077Z,82.80
2022-07-27T04:22:23.290Z,82.90
2022-07-27T04:23:25.588Z,82.80
2022-07-27T04:24:28.963Z,82.80
2022-07-27T04:25:31.969Z,82.90
2022-07-27T04:26:35.260Z,82.90
2022-07-27T04:27:40.531Z,82.90
2022-07-27T04:28:43.826Z,82.90
2022-07-27T04:29:48.932Z,83.00
2022-07-27T04:30:53.967Z,83.00
2022-07-27T04:31:56.569Z,83.00
2022-07-27T04:32:59.847Z,83.00
2022-07-27T04:34:04.459Z,83.00
2022-07-27T04:35:09.399Z,82.90
2022-07-27T04:36:11.703Z,83.00
2022-07-27T04:37:15.107Z,82.90
2022-07-27T04:38:17.671Z,82.90
2022-07-27T04:39:23.749Z,82.80
2022-07-27T04:40:26.320Z,82.80
2022-07-27T04:41:30.547Z,82.80
2022-07-27T04:42:33.097Z,82.80
2022-07-27T04:43:36.561Z,82.80
2022-07-27T04:44:40.009Z,82.70
2022-07-27T04:45:42.633Z,82.80
2022-07-27T04:46:52.375Z,82.80
2022-07-27T04:47:54.826Z,82.90
2022-07-27T04:48:58.483Z,82.80
2022-07-27T04:50:00.838Z,82.80
2022-07-27T04:51:05.273Z,82.70
2022-07-27T04:52:07.561Z,82.60
2022-07-27T04:53:10.972Z,82.40
2022-07-27T04:54:15.285Z,82.20
2022-07-27T04:55:18.621Z,82.10
2022-07-27T04:56:21.110Z,82.00
2022-07-27T04:57:24.440Z,81.80
2022-07-27T04:58:26.948Z,81.70
2022-07-27T04:59:32.422Z,81.60
2022-07-27T05:00:37.906Z,81.50
2022-07-27T05:01:41.307Z,81.40
2022-07-27T05:02:44.986Z,81.20
2022-07-27T05:03:48.512Z,80.90
2022-07-27T05:04:50.929Z,80.80
2022-07-27T05:05:54.937Z,80.70
2022-07-27T05:06:57.241Z,80.60
2022-07-27T05:08:03.878Z,80.50
2022-07-27T05:09:06.270Z,80.40
2022-07-27T05:10:16.525Z,80.40
2022-07-27T05:11:21.971Z,80.20
2022-07-27T05:12:25.201Z,80.20
2022-07-27T05:13:28.530Z,80.10
2022-07-27T05:14:30.915Z,80.10
2022-07-27T05:15:54.992Z,80.00
2022-07-27T05:16:56.515Z,80.00
2022-07-27T05:18:03.572Z,80.00
2022-07-27T05:19:06.032Z,79.90
2022-07-27T05:20:11.685Z,79.90
2022-07-27T05:21:14.057Z,79.90
2022-07-27T05:22:20.009Z,79.90
2022-07-27T05:23:22.227Z,79.60
2022-07-27T05:24:25.481Z,79.50
2022-07-27T05:25:30.568Z,79.40
2022-07-27T05:26:33.794Z,79.30
2022-07-27T05:27:37.455Z,79.10
2022-07-27T05:28:57.876Z,79.00
2022-07-27T05:30:00.199Z,78.90
2022-07-27T05:31:03.635Z,78.80
2022-07-27T05:32:06.939Z,78.70
2022-07-27T05:33:11.875Z,78.60
2022-07-27T05:34:14.220Z,78.50
2022-07-27T05:35:17.524Z,78.50
2022-07-27T05:36:19.842Z,78.40
2022-07-27T05:37:23.300Z,78.30
2022-07-27T05:38:27.012Z,78.10
2022-07-27T05:39:29.807Z,78.00
2022-07-27T05:40:33.220Z,77.90
2022-07-27T05:41:36.925Z,77.90
2022-07-27T05:42:42.918Z,77.90
2022-07-27T05:43:46.301Z,77.90
2022-07-27T05:44:48.664Z,77.80
2022-07-27T05:45:51.941Z,77.80
2022-07-27T05:46:54.282Z,77.80
2022-07-27T05:47:59.687Z,77.80
2022-07-27T05:49:03.817Z,77.80
2022-07-27T05:50:08.430Z,77.80
2022-07-27T05:51:10.918Z,77.70
2022-07-27T05:52:15.712Z,77.60
2022-07-27T05:53:18.289Z,77.50
2022-07-27T05:54:21.587Z,77.50
2022-07-27T05:55:24.877Z,77.50
2022-07-27T05:56:29.349Z,77.30
2022-07-27T05:57:32.781Z,77.00
2022-07-27T05:58:36.541Z,76.90
2022-07-27T05:59:38.998Z,76.90
2022-07-27T06:00:42.333Z,76.40
2022-07-27T06:01:44.839Z,75.90
2022-07-27T06:02:48.104Z,75.50
2022-07-27T06:03:50.545Z,74.40
2022-07-27T06:04:55.636Z,74.00
2022-07-27T06:06:12.835Z,73.70
2022-07-27T06:07:35.478Z,73.00
2022-07-27T06:08:38.792Z,72.70
2022-07-27T06:09:41.477Z,72.90
2022-07-27T06:10:44.959Z,72.60
2022-07-27T06:11:47.302Z,71.90
2022-07-27T06:12:50.649Z,72.10
2022-07-27T06:13:53.223Z,71.60
2022-07-27T06:14:56.474Z,70.60
2022-07-27T06:15:58.830Z,69.90
2022-07-27T06:17:02.128Z,69.30
2022-07-27T06:18:06.833Z,68.40
2022-07-27T06:19:09.615Z,68.20
2022-07-27T06:20:14.784Z,67.70
2022-07-27T06:21:19.875Z,67.20
2022-07-27T06:22:23.162Z,66.90
2022-07-27T06:23:29.174Z,66.70
2022-07-27T06:24:31.437Z,66.00
2022-07-27T06:25:35.734Z,65.90
2022-07-27T06:26:38.259Z,66.10
2022-07-27T06:27:41.713Z,66.40
2022-07-27T06:28:45.019Z,66.40
2022-07-27T06:29:48.424Z,65.70
2022-07-27T06:30:53.520Z,65.80
2022-07-27T06:31:56.139Z,65.90
2022-07-27T06:32:59.967Z,65.50
2022-07-27T06:34:03.925Z,64.90
2022-07-27T06:35:12.806Z,64.70
2022-07-27T06:36:16.505Z,63.90
2022-07-27T06:37:19.734Z,62.90
2022-07-27T06:38:25.115Z,62.60
2022-07-27T06:39:28.670Z,62.60
2022-07-27T06:41:34.934Z,62.10
2022-07-27T06:43:41.294Z,61.50
2022-07-27T06:44:44.884Z,61.50
2022-07-27T06:45:47.401Z,61.20
2022-07-27T06:46:50.982Z,60.60
2022-07-27T06:47:53.721Z,60.00
2022-07-27T06:48:57.121Z,60.20
2022-07-27T06:50:00.864Z,60.00
2022-07-27T06:51:03.225Z,59.10
2022-07-27T06:52:08.926Z,58.70
2022-07-27T06:53:11.364Z,58.00
2022-07-27T06:54:14.643Z,57.90
2022-07-27T06:55:17.149Z,58.20
2022-07-27T06:56:20.744Z,58.20
2022-07-27T06:57:23.994Z,58.10
2022-07-27T06:58:29.522Z,57.00
2022-07-27T06:59:43.497Z,57.60
2022-07-27T07:00:47.554Z,57.20
2022-07-27T07:02:55.814Z,57.00
2022-07-27T07:03:59.890Z,57.10
2022-07-27T07:05:03.287Z,56.60
2022-07-27T07:06:06.716Z,56.40
2022-07-27T07:07:10.494Z,56.90
2022-07-27T07:08:14.803Z,56.80
2022-07-27T07:09:17.537Z,56.70
2022-07-27T07:10:21.762Z,56.10
2022-07-27T07:11:29.487Z,55.50
2022-07-27T07:12:32.122Z,55.90
2022-07-27T07:13:39.218Z,55.90
2022-07-27T07:14:44.475Z,55.50
2022-07-27T07:15:47.991Z,54.70
2022-07-27T07:16:50.734Z,53.60
2022-07-27T07:17:54.682Z,53.60
2022-07-27T07:18:56.996Z,53.60
2022-07-27T07:20:00.552Z,53.90
2022-07-27T07:21:06.439Z,52.80
2022-07-27T07:22:13.364Z,53.40
2022-07-27T07:23:15.785Z,53.30
2022-07-27T07:25:22.022Z,53.10
2022-07-27T07:26:25.399Z,53.40
2022-07-27T07:27:28.514Z,53.50
2022-07-27T07:28:31.989Z,54.00
2022-07-27T07:29:35.436Z,53.00
2022-07-27T07:30:37.941Z,52.90
2022-07-27T07:31:43.983Z,53.40
2022-07-27T07:32:46.427Z,53.20
2022-07-27T07:33:49.743Z,51.90
2022-07-27T07:34:55.361Z,52.30
2022-07-27T07:36:12.412Z,51.40
2022-07-27T07:37:21.102Z,51.80
2022-07-27T07:38:28.185Z,52.00
2022-07-27T07:39:32.623Z,51.40
2022-07-27T07:40:44.852Z,51.60
2022-07-27T07:41:48.833Z,51.00
2022-07-27T07:42:53.781Z,50.70
2022-07-27T07:43:57.140Z,49.40
2022-07-27T07:44:59.459Z,49.30
2022-07-27T07:46:02.843Z,49.30
2022-07-27T07:47:06.202Z,50.00
2022-07-27T07:48:11.350Z,50.30
2022-07-27T07:49:15.098Z,49.90
2022-07-27T07:50:18.515Z,50.40
2022-07-27T07:51:24.410Z,50.60
2022-07-27T07:52:30.710Z,50.60
2022-07-27T07:53:39.172Z,50.30
2022-07-27T07:54:44.663Z,50.10
2022-07-27T07:55:47.023Z,49.80
2022-07-27T07:56:50.440Z,50.30
2022-07-27T07:57:54.902Z,49.30
2022-07-27T07:59:01.311Z,49.50
2022-07-27T08:00:06.608Z,49.00
2022-07-27T08:01:14.951Z,48.90
2022-07-27T08:02:17.603Z,47.50
2022-07-27T08:03:21.215Z,47.50
2022-07-27T08:04:23.742Z,45.80
2022-07-27T08:05:27.814Z,46.70
2022-07-27T08:06:30.278Z,46.00
2022-07-27T08:07:37.152Z,46.20
2022-07-27T08:08:40.535Z,45.70
2022-07-27T08:09:42.871Z,46.10
2022-07-27T08:10:46.278Z,46.00
2022-07-27T08:11:51.410Z,45.10
2022-07-27T08:12:56.895Z,44.60
2022-07-27T08:14:00.616Z,44.50
2022-07-27T08:15:03.182Z,44.10
2022-07-27T08:16:08.946Z,44.50
2022-07-27T08:17:11.304Z,43.50
2022-07-27T08:18:14.694Z,43.80
2022-07-27T08:19:17.983Z,43.70
2022-07-27T08:20:21.325Z,43.70
2022-07-27T08:21:24.805Z,43.40
2022-07-27T08:22:27.740Z,43.60
2022-07-27T08:23:32.583Z,43.80
2022-07-27T08:24:35.846Z,43.90
2022-07-27T08:25:39.425Z,43.50
2022-07-27T08:26:45.002Z,43.60
2022-07-27T08:27:47.668Z,43.10
2022-07-27T08:28:51.094Z,42.90
2022-07-27T08:29:53.843Z,43.10
2022-07-27T08:30:59.820Z,42.70
2022-07-27T08:32:16.591Z,42.70
2022-07-27T08:33:20.019Z,42.70
2022-07-27T08:34:22.396Z,42.50
2022-07-27T08:35:28.729Z,42.30
2022-07-27T08:36:32.049Z,43.10
2022-07-27T08:37:36.744Z,43.10
2022-07-27T08:38:41.362Z,42.80
2022-07-27T08:41:09.347Z,43.40
2022-07-27T08:42:15.007Z,42.00
2022-07-27T08:43:24.924Z,43.00
2022-07-27T08:44:30.861Z,42.40
2022-07-27T08:45:35.207Z,42.50
2022-07-27T08:46:40.654Z,41.30
2022-07-27T08:47:45.667Z,42.20
2022-07-27T08:48:49.796Z,41.90
2022-07-27T08:49:53.921Z,42.00
2022-07-27T08:50:58.076Z,42.40
2022-07-27T08:52:02.443Z,42.20
2022-07-27T08:53:10.936Z,41.40
2022-07-27T08:54:16.133Z,40.70
2022-07-27T08:55:18.916Z,41.40
2022-07-27T08:56:22.573Z,41.90
2022-07-27T08:57:28.382Z,41.40
2022-07-27T08:58:31.866Z,40.80
2022-07-27T08:59:36.127Z,41.10
2022-07-27T09:00:42.671Z,40.60
2022-07-27T09:01:48.154Z,38.80
2022-07-27T09:02:54.684Z,40.00
2022-07-27T09:03:58.026Z,39.70
2022-07-27T09:05:01.664Z,39.80
2022-07-27T09:06:06.485Z,40.10
2022-07-27T09:07:09.040Z,39.70
2022-07-27T09:08:15.393Z,39.80
2022-07-27T09:09:22.828Z,39.70
2022-07-27T09:10:33.571Z,39.50
2022-07-27T09:11:37.641Z,40.20
2022-07-27T09:12:42.180Z,38.80
2022-07-27T09:13:45.595Z,39.30
2022-07-27T09:14:53.063Z,39.40
2022-07-27T09:19:01.490Z,39.30
2022-07-27T09:20:08.601Z,39.20
2022-07-27T09:21:18.550Z,39.00
2022-07-27T09:22:41.139Z,38.80
2022-07-27T09:23:48.070Z,39.30
2022-07-27T09:25:04.918Z,38.80
2022-07-27T09:26:29.815Z,37.50
2022-07-27T09:27:38.078Z,38.50
2022-07-27T09:28:41.628Z,38.20
2022-07-27T09:29:45.231Z,38.60
2022-07-27T09:30:47.551Z,38.20
2022-07-27T09:31:54.098Z,37.30
2022-07-27T09:32:59.707Z,38.50
2022-07-27T09:34:04.607Z,37.50
2022-07-27T09:35:17.593Z,38.20
2022-07-27T09:36:25.395Z,37.80
2022-07-27T09:37:29.667Z,38.30
2022-07-27T09:38:32.144Z,38.20
2022-07-27T09:39:35.489Z,38.50
2022-07-27T09:40:40.294Z,38.60
2022-07-27T09:41:45.934Z,37.90
2022-07-27T09:43:12.501Z,37.90
2022-07-27T09:44:32.275Z,37.60
2022-07-27T09:45:43.273Z,37.60
2022-07-27T09:46:56.895Z,37.70
2022-07-27T09:48:16.767Z,37.30
2022-07-27T09:49:31.883Z,37.40
2022-07-27T09:50:36.053Z,36.80
2022-07-27T09:52:03.033Z,36.20
2022-07-27T09:53:41.535Z,37.40
2022-07-27T09:54:47.382Z,37.10
2022-07-27T09:56:03.729Z,37.60
2022-07-27T09:57:09.660Z,37.80
2022-07-27T09:58:15.543Z,37.50
2022-07-27T09:59:20.242Z,37.10
2022-07-27T10:00:23.801Z,37.00
2022-07-27T10:01:30.075Z,37.30
2022-07-27T10:02:32.916Z,37.80
2022-07-27T10:03:36.540Z,37.90
2022-07-27T10:04:39.970Z,36.70
2022-07-27T10:05:43.040Z,36.60
2022-07-27T10:07:01.600Z,37.20
2022-07-27T10:08:07.328Z,36.70
2022-07-27T10:09:10.787Z,36.40
2022-07-27T10:10:13.832Z,36.70
2022-07-27T10:11:20.832Z,36.80
2022-07-27T10:12:23.446Z,35.70
2022-07-27T10:13:27.387Z,36.70
2022-07-27T10:14:30.670Z,36.50
2022-07-27T10:15:33.437Z,37.10
2022-07-27T10:16:37.383Z,36.80
2022-07-27T10:17:42.168Z,36.70
2022-07-27T10:19:07.946Z,36.70
2022-07-27T10:20:14.236Z,37.50
2022-07-27T10:21:18.823Z,36.80
2022-07-27T10:22:56.646Z,37.10
2022-07-27T10:24:03.927Z,37.50
2022-07-27T10:25:07.524Z,37.70
2022-07-27T10:26:28.168Z,36.70
2022-07-27T10:27:31.738Z,37.00
2022-07-27T10:28:51.921Z,36.30
2022-07-27T10:29:57.101Z,37.60
2022-07-27T10:31:18.414Z,37.60
2022-07-27T10:32:31.095Z,36.60
2022-07-27T10:33:44.740Z,37.00
2022-07-27T10:34:48.114Z,37.20
2022-07-27T10:35:50.628Z,36.50
2022-07-27T10:36:56.245Z,35.20
2022-07-27T10:38:15.582Z,36.50
2022-07-27T10:39:38.145Z,36.50
2022-07-27T10:40:41.250Z,36.60
2022-07-27T10:41:46.033Z,37.00
2022-07-27T10:42:54.242Z,36.80
2022-07-27T10:44:30.092Z,37.40
2022-07-27T10:45:55.411Z,37.50
2022-07-27T10:47:05.995Z,37.80
2022-07-27T10:48:09.585Z,37.40
2022-07-27T10:49:20.200Z,37.40
2022-07-27T10:50:32.585Z,37.00
2022-07-27T10:51:36.825Z,37.10
2022-07-27T10:52:45.155Z,36.60
2022-07-27T10:54:22.735Z,37.20
2022-07-27T10:55:47.737Z,37.60
2022-07-27T10:56:54.912Z,37.30
2022-07-27T10:57:57.472Z,37.50
2022-07-27T10:59:00.719Z,37.50
2022-07-27T11:00:11.139Z,37.70
2022-07-27T11:01:20.022Z,37.80
2022-07-27T11:02:41.151Z,37.20
2022-07-27T11:03:55.302Z,37.60
2022-07-27T11:04:58.781Z,37.80
2022-07-27T11:06:30.791Z,37.20
2022-07-27T11:07:33.223Z,36.90
2022-07-27T11:08:47.366Z,36.70
2022-07-27T11:10:09.208Z,36.60
2022-07-27T11:11:16.659Z,36.80
2022-07-27T11:12:30.507Z,37.30
2022-07-27T11:13:38.735Z,36.80
2022-07-27T11:14:49.621Z,36.60
2022-07-27T11:15:59.723Z,37.10
2022-07-27T11:17:39.946Z,37.30
2022-07-27T11:18:32.497Z,36.90
2022-07-27T11:19:35.968Z,37.20
2022-07-27T11:20:38.410Z,37.30
2022-07-27T11:21:46.607Z,37.10
2022-07-27T11:23:40.680Z,37.20
2022-07-27T11:24:17.577Z,37.60
2022-07-27T11:25:20.158Z,36.20
2022-07-27T11:26:26.839Z,35.80
2022-07-27T11:27:31.875Z,36.70
2022-07-27T11:28:37.060Z,36.70
2022-07-27T11:29:43.737Z,37.40
2022-07-27T11:30:46.391Z,37.60
2022-07-27T11:31:56.027Z,37.70
2022-07-27T11:33:04.798Z,37.90
2022-07-27T11:34:08.875Z,38.70
2022-07-27T11:35:19.646Z,38.80
2022-07-27T11:36:35.326Z,38.70
2022-07-27T11:37:37.599Z,38.20
2022-07-27T11:38:48.295Z,37.40
2022-07-27T11:40:04.159Z,37.70
2022-07-27T11:41:24.093Z,37.60
2022-07-27T11:42:41.829Z,37.40
2022-07-27T11:43:45.770Z,37.60
2022-07-27T11:44:49.353Z,37.30
2022-07-27T11:45:53.736Z,37.00
2022-07-27T11:47:01.731Z,37.50
2022-07-27T11:48:10.556Z,37.60
2022-07-27T11:49:16.625Z,38.10
2022-07-27T11:50:18.938Z,38.00
2022-07-27T11:51:22.666Z,38.40
2022-07-27T11:52:28.195Z,38.00
2022-07-27T11:53:30.661Z,38.70
2022-07-27T11:54:36.645Z,38.70
2022-07-27T11:55:38.986Z,38.80
2022-07-27T11:56:46.134Z,38.80
2022-07-27T11:57:50.842Z,39.20
2022-07-27T11:59:12.962Z,39.50
2022-07-27T12:00:16.914Z,39.90
2022-07-27T12:01:28.793Z,40.50
2022-07-27T12:02:32.127Z,40.80
2022-07-27T12:03:46.297Z,41.20
2022-07-27T12:04:57.853Z,41.10
2022-07-27T12:06:04.792Z,41.30
2022-07-27T12:07:11.390Z,41.70
2022-07-27T12:08:14.382Z,41.40
2022-07-27T12:09:19.238Z,41.20
2022-07-27T12:10:22.997Z,41.00
2022-07-27T12:11:34.052Z,40.70
2022-07-27T12:12:39.193Z,41.10
2022-07-27T12:13:42.932Z,41.60
2022-07-27T12:14:48.906Z,41.20
2022-07-27T12:15:57.614Z,41.20
2022-07-27T12:17:16.279Z,40.90
2022-07-27T12:18:19.855Z,41.00
2022-07-27T12:19:24.136Z,41.10
2022-07-27T12:20:36.468Z,41.40
2022-07-27T12:21:38.890Z,41.80
2022-07-27T12:22:47.391Z,40.90
2022-07-27T12:23:52.534Z,41.90
2022-07-27T12:24:57.849Z,42.40
2022-07-27T12:26:19.346Z,42.60
2022-07-27T12:27:23.104Z,42.90
2022-07-27T12:28:27.879Z,42.70
2022-07-27T12:29:34.455Z,42.40
2022-07-27T12:30:41.203Z,42.50
2022-07-27T12:31:49.423Z,42.50
2022-07-27T12:32:55.614Z,42.90
2022-07-27T12:34:05.635Z,42.80
2022-07-27T12:35:26.609Z,41.60
2022-07-27T12:36:31.671Z,41.70
2022-07-27T12:37:42.460Z,41.80
2022-07-27T12:38:48.769Z,41.70
2022-07-27T12:39:51.507Z,41.50
2022-07-27T12:41:00.881Z,41.70
2022-07-27T12:42:05.974Z,42.20
2022-07-27T12:43:09.923Z,42.30
2022-07-27T12:44:15.653Z,41.60
2022-07-27T12:45:22.087Z,42.40
2022-07-27T12:46:24.399Z,42.30
2022-07-27T12:47:43.677Z,43.00
2022-07-27T12:48:47.718Z,43.00
2022-07-27T12:50:08.088Z,43.90
2022-07-27T12:51:12.372Z,43.70
2022-07-27T12:52:14.778Z,44.00
2022-07-27T12:53:20.657Z,44.10
2022-07-27T12:54:23.142Z,43.90
2022-07-27T12:55:26.811Z,43.60
2022-07-27T12:56:29.132Z,43.30
2022-07-27T12:57:54.525Z,43.70
2022-07-27T12:59:01.948Z,43.40
2022-07-27T13:00:07.735Z,43.40
2022-07-27T13:01:12.583Z,43.50
2022-07-27T13:02:15.932Z,43.80
2022-07-27T13:03:19.711Z,44.20
2022-07-27T13:04:22.301Z,44.40
2022-07-27T13:05:26.086Z,44.10
2022-07-27T13:06:30.128Z,44.10
2022-07-27T13:07:33.644Z,43.90
2022-07-27T13:08:37.016Z,44.00
2022-07-27T13:10:03.544Z,43.80
2022-07-27T13:11:04.924Z,43.70
2022-07-27T13:12:07.597Z,43.80
2022-07-27T13:13:13.737Z,43.60
2022-07-27T13:14:16.078Z,43.60
2022-07-27T13:15:20.586Z,43.50
2022-07-27T13:16:25.901Z,43.10
2022-07-27T13:17:29.415Z,43.40
2022-07-27T13:18:33.123Z,43.60
2022-07-27T13:19:35.528Z,43.80
2022-07-27T13:20:38.846Z,44.00
2022-07-27T13:21:41.314Z,44.30
2022-07-27T13:22:46.116Z,44.10
2022-07-27T13:23:52.204Z,43.60
2022-07-27T13:24:55.858Z,43.70
2022-07-27T13:25:59.192Z,43.30
2022-07-27T13:27:02.684Z,43.50
2022-07-27T13:28:06.492Z,43.60
2022-07-27T13:29:11.485Z,43.60
2022-07-27T13:30:18.754Z,43.10
2022-07-27T13:31:21.063Z,43.00
2022-07-27T13:32:26.425Z,43.00
2022-07-27T13:33:29.600Z,42.30
2022-07-27T13:34:33.267Z,43.20
2022-07-27T13:35:36.901Z,43.30
2022-07-27T13:36:40.899Z,42.80
2022-07-27T13:37:46.997Z,43.00
2022-07-27T13:38:49.373Z,42.40
2022-07-27T13:39:52.767Z,42.30
2022-07-27T13:40:55.051Z,41.40
2022-07-27T13:41:58.612Z,42.60
2022-07-27T13:43:01.904Z,42.50
2022-07-27T13:44:04.959Z,42.70
2022-07-27T13:46:15.289Z,42.80
2022-07-27T13:47:17.686Z,43.20
2022-07-27T13:48:24.617Z,43.40
2022-07-27T13:49:26.962Z,43.80
2022-07-27T13:50:30.457Z,44.20
2022-07-27T13:51:35.076Z,44.40
2022-07-27T13:52:38.990Z,44.40
2022-07-27T13:53:42.320Z,44.80
2022-07-27T13:54:45.671Z,44.70
2022-07-27T13:55:52.084Z,45.00
2022-07-27T13:56:55.521Z,44.90
2022-07-27T13:57:57.829Z,44.40
2022-07-27T13:59:04.917Z,44.40
2022-07-27T14:00:09.191Z,44.60
2022-07-27T14:01:13.074Z,44.50
2022-07-27T14:02:15.916Z,44.40
2022-07-27T14:03:27.684Z,44.50
2022-07-27T14:04:35.646Z,44.50
2022-07-27T14:05:41.965Z,44.50
2022-07-27T14:06:52.945Z,44.60
2022-07-27T14:07:57.772Z,44.90
2022-07-27T14:09:01.440Z,44.80
2022-07-27T14:10:22.714Z,45.20
2022-07-27T14:11:28.432Z,45.30
2022-07-27T14:12:32.475Z,45.40
2022-07-27T14:13:38.225Z,45.00
2022-07-27T14:14:40.781Z,44.80